If you wish to contribute or participate in the discussions about articles you are invited to join SKYbrary as a registered user

 Actions

Xiamen Gaoqi International Airport

From SKYbrary Wiki

ZSAM
Airport
ICAO: ZSAM – IATA: XMN
Summary
Name Xiamen Gaoqi International Airport
Region Asia and Pacific
Territory China CN.gif
Location Huli, Fujian
Serving Xiamen
Elevation 17.983 m
59 ft
59 ft17.983 m
Coordinates 24° 32' 20.65" N, 118° 8' 3.72" E
Runways
Designator Length Width Surface ROPS
5/23 3400 m11,154.856 ft
45 m147.638 ft
ASP yes/yes


METAR
Observation ZSAM 191900Z 03007MPS 360V060 9999 BKN040 17/08 Q1021 NOSIG
Station Xiamen
Date/Time 19 November 2019 19:00:00
Wind direction 30°
Wind speed kts
Lowest cloud amount broken clouds
Temperature 17°C
Dew point 8°C
Humidity 55%
QNH 1021 hPa
Weather condition n/a

Xiamen Gaoqi International Airport

ICAO: ZSAM IATA: XMN

Description

Xiamen Gaoqi International Airport is the airport serving the city of Xiamen in Fujian Province, China. The airport is located on the north side of Xiamen Island.

Climatology

Humid subtropical climate (Köppen climate classification Cfa.) Hot muggy summers with frequent thunderstorms. Winters are mild and precipitation during this season comes from mid-latitude cyclones. This climate type is quite common on the east coasts of continents.

Maps

Terrain

Loading map...

Airport Layout

Loading map...


Accidents & Serious Incidents at or in vicinity of ZSAM

None on SKYbrary